Time;durP1;ratioP1;P1;durP2;ratioP2;P2;SDS_P1;SDS_P2;PMS_P1;PMS_P2;Temp;Humidity;BMP_temperature;BMP_pressure;BME280_temperature;BME280_humidity;BME280_pressure;Samples;Min_cycle;Max_cycle;Signal;HPM_P1;HPM_P2
2023/03/15 00:00:13;;;;;;;16.88;4.25;;;4.80;99.90;;;;;;5006340;28;20091;-53
2023/03/15 00:02:38;;;;;;;19.92;4.35;;;4.60;99.90;;;;;;5012463;28;20603;-53
2023/03/15 00:05:05;;;;;;;14.35;4.57;;;4.60;99.90;;;;;;5012473;28;20038;-52
2023/03/15 00:07:30;;;;;;;13.23;4.28;;;4.60;99.90;;;;;;5015080;28;20042;-50
2023/03/15 00:09:56;;;;;;;15.38;4.85;;;4.70;99.90;;;;;;5013081;28;20034;-51
2023/03/15 00:12:22;;;;;;;17.30;4.95;;;4.60;99.90;;;;;;5011468;28;20408;-51
2023/03/15 00:14:48;;;;;;;16.75;4.82;;;4.50;99.90;;;;;;5013399;28;20038;-51
2023/03/15 00:17:14;;;;;;;13.40;4.85;;;4.40;99.90;;;;;;5004571;28;20565;-48
2023/03/15 00:19:40;;;;;;;16.30;5.13;;;4.40;99.90;;;;;;5007188;28;20033;-50
2023/03/15 00:22:05;;;;;;;15.90;6.30;;;4.30;99.90;;;;;;5006771;28;20030;-51
2023/03/15 00:24:31;;;;;;;10.52;4.82;;;4.20;99.90;;;;;;5005228;28;20117;-51
2023/03/15 00:26:57;;;;;;;10.65;4.80;;;4.10;99.90;;;;;;5005082;28;20030;-52
2023/03/15 00:29:22;;;;;;;12.70;4.85;;;3.90;99.90;;;;;;5005573;28;20773;-51
2023/03/15 00:31:50;;;;;;;10.90;4.45;;;3.80;99.90;;;;;;5006206;28;20045;-52
2023/03/15 00:34:17;;;;;;;8.85;4.60;;;3.80;99.90;;;;;;5003827;28;20048;-52
2023/03/15 00:36:43;;;;;;;12.23;4.22;;;3.80;99.90;;;;;;5006224;28;20048;-50
2023/03/15 00:39:10;;;;;;;12.63;4.55;;;3.50;99.90;;;;;;5003879;28;20057;-50
2023/03/15 00:41:36;;;;;;;9.75;3.85;;;3.60;99.90;;;;;;5004966;28;20085;-50
2023/03/15 00:44:03;;;;;;;6.40;3.47;;;3.80;99.90;;;;;;5005050;28;20030;-49
2023/03/15 00:46:28;;;;;;;8.65;3.83;;;3.80;99.90;;;;;;5006166;28;20072;-52
2023/03/15 00:48:54;;;;;;;10.85;3.58;;;3.70;99.90;;;;;;5001025;28;20112;-49
2023/03/15 00:51:22;;;;;;;8.82;3.30;;;3.60;99.90;;;;;;4982608;28;20099;-48
2023/03/15 00:53:49;;;;;;;7.05;3.05;;;3.60;99.90;;;;;;5006232;28;20481;-52
2023/03/15 00:56:21;;;;;;;13.80;3.67;;;3.50;99.90;;;;;;5003105;28;20040;-51
2023/03/15 00:58:46;;;;;;;8.43;3.45;;;3.30;99.90;;;;;;4988535;28;20041;-51
2023/03/15 01:01:24;;;;;;;8.27;3.47;;;3.30;99.90;;;;;;5005965;28;20033;-51
2023/03/15 01:03:50;;;;;;;9.98;3.90;;;3.20;99.90;;;;;;5004460;28;20442;-50
2023/03/15 01:06:19;;;;;;;9.40;3.63;;;3.30;99.90;;;;;;5002126;28;20121;-51
2023/03/15 01:08:45;;;;;;;8.00;3.60;;;3.40;99.90;;;;;;4995940;28;20038;-50
2023/03/15 01:11:20;;;;;;;8.13;3.88;;;3.30;99.90;;;;;;5004425;28;20128;-52
2023/03/15 01:13:45;;;;;;;7.18;4.07;;;3.10;99.90;;;;;;5004426;28;20066;-50
2023/03/15 01:16:12;;;;;;;8.20;4.40;;;3.10;99.90;;;;;;5004792;28;20069;-52
2023/03/15 01:18:40;;;;;;;10.55;5.20;;;3.10;99.90;;;;;;5006483;28;20559;-50
2023/03/15 01:21:07;;;;;;;8.50;5.15;;;3.30;99.90;;;;;;5005814;28;20056;-53
2023/03/15 01:23:32;;;;;;;11.70;5.80;;;3.20;99.90;;;;;;5003985;28;20648;-51
2023/03/15 01:26:03;;;;;;;12.85;6.07;;;3.40;99.90;;;;;;5008495;28;20113;-53
2023/03/15 01:28:29;;;;;;;12.60;6.57;;;3.30;99.90;;;;;;5009082;28;20041;-48
2023/03/15 01:30:55;;;;;;;8.38;5.82;;;3.20;99.90;;;;;;5008415;28;20038;-50
2023/03/15 01:33:21;;;;;;;11.02;6.07;;;3.10;99.90;;;;;;5009761;28;20042;-50
2023/03/15 01:35:47;;;;;;;9.80;5.45;;;3.10;99.90;;;;;;4971874;28;20517;-51
2023/03/15 01:38:13;;;;;;;6.80;4.55;;;3.20;99.90;;;;;;5004565;28;20026;-52
2023/03/15 01:40:43;;;;;;;6.68;3.83;;;3.30;99.90;;;;;;5002468;28;20037;-52
2023/03/15 01:43:24;;;;;;;6.45;3.65;;;3.30;99.90;;;;;;4991675;28;20636;-50
2023/03/15 01:46:06;;;;;;;6.03;3.67;;;3.30;99.90;;;;;;5008857;28;20038;-51
2023/03/15 01:48:37;;;;;;;4.88;3.28;;;3.50;99.90;;;;;;5016224;28;20650;-52
2023/03/15 01:51:10;;;;;;;5.30;3.47;;;3.60;99.90;;;;;;5013608;28;20501;-49
2023/03/15 01:53:36;;;;;;;;;;;3.50;99.90;;;;;;5010836;28;20048;-49
2023/03/15 01:56:02;;;;;;;7.70;4.38;;;3.50;99.90;;;;;;4999336;28;19910;-51
2023/03/15 01:58:28;;;;;;;7.38;4.93;;;3.60;99.90;;;;;;5009410;28;20034;-52
2023/03/15 02:00:54;;;;;;;9.15;5.25;;;3.70;99.90;;;;;;5005767;28;20040;-51
2023/03/15 02:03:29;;;;;;;9.80;5.72;;;3.80;99.90;;;;;;5008627;28;20123;-53
2023/03/15 02:06:03;;;;;;;10.65;6.03;;;3.90;99.90;;;;;;5009166;28;20033;-51
2023/03/15 02:08:34;;;;;;;14.25;6.45;;;4.00;99.90;;;;;;4988416;28;20092;-53
2023/03/15 02:11:02;;;;;;;9.88;6.68;;;4.00;99.90;;;;;;5006035;28;20033;-53
2023/03/15 02:13:30;;;;;;;15.40;8.05;;;3.90;99.90;;;;;;5001608;28;20033;-51
2023/03/15 02:15:56;;;;;;;9.98;7.63;;;4.10;99.90;;;;;;5008787;28;20041;-54
2023/03/15 02:18:22;;;;;;;16.23;8.40;;;4.10;99.90;;;;;;5007316;28;20062;-52
2023/03/15 02:21:09;;;;;;;15.80;9.73;;;4.10;99.90;;;;;;5008910;28;20041;-53
2023/03/15 02:23:35;;;;;;;15.45;9.48;;;4.10;99.90;;;;;;4991123;28;20052;-51
2023/03/15 02:26:28;;;;;;;14.60;9.30;;;4.10;99.90;;;;;;5008102;28;20038;-52
2023/03/15 02:28:54;;;;;;;18.23;10.85;;;4.10;99.90;;;;;;5000831;28;20042;-53
2023/03/15 02:31:20;;;;;;;17.83;11.43;;;4.30;99.90;;;;;;5006762;28;20088;-51
2023/03/15 02:33:50;;;;;;;16.85;11.35;;;4.20;99.90;;;;;;5005442;28;20034;-50
2023/03/15 02:36:28;;;;;;;17.50;12.45;;;4.30;99.90;;;;;;5008033;28;20044;-52
2023/03/15 02:38:55;;;;;;;19.52;13.00;;;4.30;99.90;;;;;;5008549;28;20556;-50
2023/03/15 02:41:27;;;;;;;21.80;12.93;;;4.50;99.90;;;;;;5000679;28;20448;-53
2023/03/15 02:43:57;;;;;;;19.90;11.43;;;4.60;99.90;;;;;;5008834;28;20041;-51
2023/03/15 02:46:23;;;;;;;23.60;12.43;;;4.50;99.90;;;;;;5008222;28;20129;-52
2023/03/15 02:48:52;;;;;;;16.83;10.93;;;4.50;99.90;;;;;;5008646;28;20120;-51
2023/03/15 02:51:27;;;;;;;17.27;10.55;;;4.40;99.90;;;;;;5008256;28;20030;-53
2023/03/15 02:53:52;;;;;;;18.02;10.23;;;4.40;99.90;;;;;;5008481;28;20045;-49
2023/03/15 02:56:18;;;;;;;14.63;9.43;;;4.30;99.90;;;;;;4988817;28;20041;-51
2023/03/15 02:58:44;;;;;;;15.55;9.30;;;4.20;99.90;;;;;;5008515;28;20552;-50
2023/03/15 03:01:12;;;;;;;12.43;8.23;;;4.00;99.90;;;;;;5007947;28;20071;-52
2023/03/15 03:03:39;;;;;;;16.58;8.77;;;3.90;99.90;;;;;;5007560;28;20045;-50
2023/03/15 03:06:04;;;;;;;12.73;8.02;;;3.60;99.90;;;;;;5005487;28;20037;-49
2023/03/15 03:08:30;;;;;;;11.15;8.30;;;3.30;99.90;;;;;;5008095;28;20100;-50
2023/03/15 03:10:55;;;;;;;14.20;8.30;;;3.00;99.90;;;;;;5006857;28;21143;-49
2023/03/15 03:13:21;;;;;;;12.30;8.88;;;3.10;99.90;;;;;;5007552;28;20045;-49
2023/03/15 03:15:57;;;;;;;11.02;8.30;;;3.20;99.90;;;;;;5007458;28;20713;-52
2023/03/15 03:18:23;;;;;;;13.50;9.27;;;3.30;99.90;;;;;;5008016;28;20034;-51
2023/03/15 03:20:49;;;;;;;11.68;8.68;;;3.30;99.90;;;;;;5007452;28;20509;-51
2023/03/15 03:23:15;;;;;;;9.77;8.02;;;3.30;99.90;;;;;;5006991;28;20026;-51
2023/03/15 03:25:40;;;;;;;10.88;8.35;;;3.40;99.90;;;;;;5006035;28;20049;-52
2023/03/15 03:28:06;;;;;;;11.35;7.93;;;3.20;99.90;;;;;;5007518;28;20038;-49
2023/03/15 03:30:34;;;;;;;11.10;7.70;;;2.90;99.90;;;;;;5008483;28;20030;-50
2023/03/15 03:32:59;;;;;;;10.70;7.90;;;2.80;99.90;;;;;;5005081;28;20026;-51
2023/03/15 03:35:25;;;;;;;12.15;7.75;;;2.60;99.90;;;;;;5006087;28;20092;-51
2023/03/15 03:37:52;;;;;;;12.35;8.13;;;2.20;99.90;;;;;;5006650;28;20044;-51
2023/03/15 03:40:18;;;;;;;11.18;8.32;;;2.20;99.90;;;;;;5005296;28;20086;-51
2023/03/15 03:42:43;;;;;;;13.07;8.70;;;2.40;99.90;;;;;;5007472;28;20153;-52
2023/03/15 03:45:09;;;;;;;11.68;8.50;;;2.60;99.90;;;;;;5007535;28;20451;-52
2023/03/15 03:47:35;;;;;;;10.98;8.52;;;2.70;99.90;;;;;;5006141;28;20500;-53
2023/03/15 03:50:00;;;;;;;11.77;8.05;;;2.90;99.90;;;;;;5007066;28;20034;-53
2023/03/15 03:52:26;;;;;;;11.73;8.50;;;3.00;99.90;;;;;;5006803;28;20045;-51
2023/03/15 03:54:52;;;;;;;11.55;8.82;;;2.90;99.90;;;;;;5005441;28;20034;-52
2023/03/15 03:57:17;;;;;;;12.77;8.90;;;3.00;99.90;;;;;;5002323;28;20083;-51
2023/03/15 03:59:43;;;;;;;12.07;8.32;;;3.00;99.90;;;;;;5007444;28;20030;-51
2023/03/15 04:02:09;;;;;;;13.07;9.25;;;3.10;99.90;;;;;;5006900;28;20034;-51
2023/03/15 04:04:35;;;;;;;11.25;8.68;;;3.10;99.90;;;;;;5006741;28;20022;-52
2023/03/15 04:07:00;;;;;;;12.60;8.45;;;3.30;99.90;;;;;;5006378;28;20544;-50
2023/03/15 04:09:27;;;;;;;11.90;8.60;;;3.00;99.90;;;;;;4987429;28;20038;-49
2023/03/15 04:11:52;;;;;;;11.50;8.85;;;3.00;99.90;;;;;;5006558;28;20100;-51
2023/03/15 04:14:18;;;;;;;10.77;7.97;;;3.20;99.90;;;;;;5007035;28;20477;-53
2023/03/15 04:16:43;;;;;;;12.88;8.50;;;3.30;99.90;;;;;;5006825;28;20531;-50
2023/03/15 04:19:11;;;;;;;13.80;9.40;;;3.50;99.90;;;;;;5005900;28;20416;-51
2023/03/15 04:21:37;;;;;;;12.48;9.07;;;3.50;99.90;;;;;;5006250;28;20104;-52
2023/03/15 04:24:03;;;;;;;11.57;8.35;;;3.60;99.90;;;;;;5004373;28;20887;-52
2023/03/15 04:26:29;;;;;;;11.63;8.02;;;3.60;99.90;;;;;;5005814;28;20030;-50
2023/03/15 04:28:56;;;;;;;11.30;8.60;;;3.50;99.90;;;;;;5007084;28;20042;-50
2023/03/15 04:31:26;;;;;;;11.02;8.77;;;3.40;99.90;;;;;;5005283;28;20038;-50
2023/03/15 04:33:54;;;;;;;12.23;8.73;;;3.30;99.90;;;;;;5001093;28;20037;-48
2023/03/15 04:36:21;;;;;;;11.00;8.65;;;3.20;99.90;;;;;;4997980;28;20041;-52
2023/03/15 04:38:48;;;;;;;11.02;8.52;;;3.30;99.90;;;;;;5005875;28;20038;-52
2023/03/15 04:41:14;;;;;;;12.10;9.10;;;3.10;99.90;;;;;;4985919;28;20042;-48
2023/03/15 04:43:40;;;;;;;11.73;9.13;;;3.10;99.90;;;;;;5005996;28;20187;-52
2023/03/15 04:46:06;;;;;;;11.85;7.88;;;3.20;99.90;;;;;;5005310;28;20046;-51
2023/03/15 04:48:32;;;;;;;11.43;8.40;;;3.10;99.90;;;;;;5005010;28;20501;-51
2023/03/15 04:50:57;;;;;;;11.07;8.55;;;3.10;99.90;;;;;;5005038;28;20037;-51
2023/03/15 04:53:23;;;;;;;11.88;9.15;;;3.10;99.90;;;;;;5004966;28;20045;-50
2023/03/15 04:55:48;;;;;;;13.20;10.30;;;3.20;99.90;;;;;;5005026;28;20033;-52
2023/03/15 04:58:14;;;;;;;13.95;10.38;;;3.40;99.90;;;;;;5003648;28;20117;-49
2023/03/15 05:00:40;;;;;;;14.07;11.02;;;3.60;99.90;;;;;;5006034;28;20464;-51
2023/03/15 05:03:05;;;;;;;15.05;11.57;;;3.60;99.90;;;;;;5004536;28;20389;-50
2023/03/15 05:05:32;;;;;;;14.85;12.07;;;3.70;99.90;;;;;;5005393;28;20169;-51
2023/03/15 05:07:58;;;;;;;17.50;12.52;;;3.70;99.90;;;;;;5004743;28;20705;-51
2023/03/15 05:10:24;;;;;;;17.58;13.73;;;3.70;99.90;;;;;;5004647;28;20263;-50
2023/03/15 05:12:50;;;;;;;18.63;14.25;;;3.70;99.90;;;;;;5005638;28;20033;-51
2023/03/15 05:15:17;;;;;;;19.13;13.57;;;3.80;99.90;;;;;;5004330;28;20066;-53
2023/03/15 05:17:45;;;;;;;18.67;13.70;;;3.80;99.90;;;;;;5005370;28;20034;-52
2023/03/15 05:20:12;;;;;;;19.75;14.55;;;3.80;99.90;;;;;;5000658;28;20034;-49
2023/03/15 05:22:41;;;;;;;19.92;14.75;;;3.70;99.90;;;;;;5002151;28;20378;-49
2023/03/15 05:25:09;;;;;;;19.45;14.45;;;3.70;99.90;;;;;;5003921;28;20091;-51
2023/03/15 05:27:35;;;;;;;19.70;14.25;;;3.40;99.90;;;;;;4996964;28;20038;-50
2023/03/15 05:30:04;;;;;;;19.30;14.82;;;3.40;99.90;;;;;;4982115;28;20508;-50
2023/03/15 05:32:33;;;;;;;19.60;14.55;;;3.30;99.90;;;;;;4991738;28;20053;-51
2023/03/15 05:35:03;;;;;;;20.25;15.23;;;3.50;99.90;;;;;;5009890;28;20041;-50
2023/03/15 05:37:29;;;;;;;25.17;17.02;;;3.50;99.90;;;;;;5001121;28;20038;-51
2023/03/15 05:39:54;;;;;;;22.20;16.58;;;3.50;99.90;;;;;;4998364;28;20409;-48
2023/03/15 05:42:24;;;;;;;23.65;16.40;;;3.30;99.90;;;;;;5005950;28;20050;-49
2023/03/15 05:44:51;;;;;;;26.23;16.73;;;3.40;99.90;;;;;;5000293;28;20038;-50
2023/03/15 05:47:17;;;;;;;24.80;17.10;;;3.30;99.90;;;;;;5001397;28;20144;-52
2023/03/15 05:49:42;;;;;;;26.05;18.50;;;3.30;99.90;;;;;;5003870;28;20120;-52
2023/03/15 05:52:08;;;;;;;27.33;18.63;;;3.20;99.90;;;;;;5004696;28;20042;-49
2023/03/15 05:54:34;;;;;;;29.23;18.45;;;3.10;99.90;;;;;;5004578;28;20317;-50
2023/03/15 05:56:59;;;;;;;29.27;19.85;;;3.20;99.90;;;;;;5004744;28;20400;-48
2023/03/15 05:59:25;;;;;;;27.23;18.55;;;3.10;99.90;;;;;;5004748;28;20370;-52
2023/03/15 06:01:50;;;;;;;24.60;17.55;;;3.00;99.90;;;;;;5004524;28;20405;-53
2023/03/15 06:04:16;;;;;;;28.80;19.27;;;3.00;99.90;;;;;;5000473;28;20022;-52
2023/03/15 06:06:41;;;;;;;27.10;18.90;;;3.10;99.90;;;;;;5005205;28;20037;-49
2023/03/15 06:09:07;;;;;;;29.65;19.13;;;3.30;99.90;;;;;;5008681;28;20053;-52
2023/03/15 06:11:33;;;;;;;27.05;17.25;;;3.20;99.90;;;;;;5007738;28;20042;-50
2023/03/15 06:13:58;;;;;;;29.17;18.95;;;3.10;99.90;;;;;;5003816;28;20073;-52
2023/03/15 06:16:24;;;;;;;28.27;18.33;;;3.20;99.90;;;;;;5003746;28;20121;-51
2023/03/15 06:18:49;;;;;;;25.83;17.73;;;3.10;99.90;;;;;;5013252;28;20385;-50
2023/03/15 06:21:15;;;;;;;27.10;17.52;;;3.20;99.90;;;;;;5013354;28;20402;-52
2023/03/15 06:23:41;;;;;;;29.75;18.30;;;3.30;99.90;;;;;;5007331;28;20065;-51
2023/03/15 06:26:07;;;;;;;27.70;18.45;;;3.30;99.90;;;;;;4998183;28;20386;-49
2023/03/15 06:28:32;;;;;;;26.45;17.42;;;3.30;99.90;;;;;;5012454;28;20042;-52
2023/03/15 06:30:58;;;;;;;24.35;17.13;;;3.30;99.90;;;;;;5006348;28;20133;-51
2023/03/15 06:33:23;;;;;;;29.58;18.90;;;3.40;99.90;;;;;;5007588;28;20041;-51
2023/03/15 06:35:49;;;;;;;28.48;18.40;;;3.60;99.90;;;;;;5009021;28;20045;-50
2023/03/15 06:38:15;;;;;;;28.40;18.63;;;3.70;99.90;;;;;;5007744;28;20618;-51
2023/03/15 06:40:40;;;;;;;29.67;18.92;;;3.70;99.90;;;;;;5005001;28;20038;-51
2023/03/15 06:43:06;;;;;;;27.05;17.60;;;3.90;99.90;;;;;;5007972;28;20233;-52
2023/03/15 06:45:32;;;;;;;26.80;17.00;;;3.80;99.90;;;;;;5009196;28;20034;-52
2023/03/15 06:47:58;;;;;;;27.00;17.30;;;3.60;99.90;;;;;;5008552;28;20030;-50
2023/03/15 06:50:24;;;;;;;28.33;18.00;;;3.40;99.90;;;;;;5006618;28;20026;-48
2023/03/15 06:52:49;;;;;;;30.10;16.98;;;3.50;99.90;;;;;;5007956;28;20030;-53
2023/03/15 06:55:17;;;;;;;29.48;17.95;;;3.80;99.90;;;;;;5006923;28;20385;-51
2023/03/15 06:57:43;;;;;;;29.27;18.00;;;3.80;99.90;;;;;;5008431;28;20037;-50
2023/03/15 07:00:10;;;;;;;28.75;17.20;;;3.90;99.90;;;;;;5007881;28;20125;-50
2023/03/15 07:02:36;;;;;;;28.88;16.92;;;4.00;99.90;;;;;;5005969;28;20042;-51
2023/03/15 07:05:03;;;;;;;25.38;16.52;;;3.90;99.90;;;;;;5002006;28;20124;-53
2023/03/15 07:07:28;;;;;;;26.17;15.38;;;3.70;99.90;;;;;;5000382;28;20026;-50
2023/03/15 07:09:54;;;;;;;25.35;15.18;;;3.70;99.90;;;;;;5006869;28;20044;-51
2023/03/15 07:12:20;;;;;;;25.67;16.00;;;3.90;99.90;;;;;;5007366;28;20124;-48
2023/03/15 07:14:45;;;;;;;26.45;15.65;;;4.00;99.90;;;;;;5008481;28;20046;-49
2023/03/15 07:17:11;;;;;;;25.05;14.48;;;4.00;99.90;;;;;;4987309;28;20405;-50
2023/03/15 07:19:37;;;;;;;28.00;14.90;;;3.90;99.90;;;;;;5004504;28;20038;-51
2023/03/15 07:22:03;;;;;;;23.80;14.45;;;3.90;99.90;;;;;;5006858;28;20038;-51
2023/03/15 07:24:29;;;;;;;27.35;14.82;;;4.00;99.90;;;;;;5010397;28;20041;-49
2023/03/15 07:26:55;;;;;;;25.27;15.63;;;4.10;99.90;;;;;;5006164;28;20040;-51
2023/03/15 07:29:22;;;;;;;25.15;14.70;;;4.30;99.90;;;;;;5014837;28;20511;-48
2023/03/15 07:31:48;;;;;;;23.50;13.68;;;4.30;99.90;;;;;;5009341;28;20928;-49
2023/03/15 07:34:14;;;;;;;24.30;14.63;;;4.20;99.90;;;;;;5007526;28;20038;-50
2023/03/15 07:36:40;;;;;;;25.80;15.02;;;4.20;99.90;;;;;;5007484;28;20830;-52
2023/03/15 07:39:05;;;;;;;26.88;14.95;;;4.30;99.90;;;;;;5004396;28;20388;-50
2023/03/15 07:41:31;;;;;;;25.00;14.93;;;4.50;99.90;;;;;;5006020;28;20066;-49
2023/03/15 07:43:56;;;;;;;24.50;14.63;;;4.50;99.90;;;;;;5008147;28;20041;-49
2023/03/15 07:46:22;;;;;;;22.70;13.18;;;4.60;99.90;;;;;;5005651;28;20390;-48
2023/03/15 07:48:47;;;;;;;19.02;12.02;;;4.50;99.90;;;;;;5006569;28;20038;-49
2023/03/15 07:51:13;;;;;;;26.17;14.20;;;4.50;99.90;;;;;;5009302;28;20053;-52
2023/03/15 07:53:38;;;;;;;23.55;14.00;;;4.40;99.90;;;;;;5010763;28;20446;-49
2023/03/15 07:56:04;;;;;;;20.92;13.45;;;4.40;99.90;;;;;;5009090;28;20045;-50
2023/03/15 07:58:30;;;;;;;24.08;12.63;;;4.30;99.90;;;;;;5013463;28;20041;-48
2023/03/15 08:00:56;;;;;;;24.23;13.05;;;4.20;99.90;;;;;;5004532;28;20037;-52
2023/03/15 08:03:23;;;;;;;19.90;13.18;;;4.30;99.90;;;;;;4990806;28;20049;-48
2023/03/15 08:05:49;;;;;;;23.48;12.93;;;4.40;99.90;;;;;;5011215;28;20034;-48
2023/03/15 08:08:14;;;;;;;24.95;12.68;;;4.40;99.90;;;;;;5003085;28;20042;-50
2023/03/15 08:10:42;;;;;;;22.80;13.40;;;4.30;99.90;;;;;;5010865;28;20357;-51
2023/03/15 08:13:07;;;;;;;19.63;12.55;;;4.30;99.90;;;;;;5013153;28;20544;-52
2023/03/15 08:15:33;;;;;;;21.30;13.20;;;4.20;99.90;;;;;;5006462;28;20104;-51
2023/03/15 08:17:58;;;;;;;25.08;13.73;;;4.30;99.90;;;;;;5009359;28;20029;-51
2023/03/15 08:20:24;;;;;;;23.05;13.23;;;4.30;99.90;;;;;;5009909;28;20118;-49
2023/03/15 08:22:50;;;;;;;23.73;13.23;;;4.40;99.90;;;;;;5009436;28;20057;-51
2023/03/15 08:25:19;;;;;;;19.48;12.75;;;4.50;99.90;;;;;;5007885;28;20029;-50
2023/03/15 08:27:45;;;;;;;19.63;12.63;;;4.50;99.90;;;;;;5006867;28;20084;-50
2023/03/15 08:30:12;;;;;;;21.52;12.07;;;4.70;99.90;;;;;;5007782;28;20037;-49
2023/03/15 08:32:39;;;;;;;20.08;11.30;;;4.60;99.90;;;;;;5007350;28;20046;-51
2023/03/15 08:35:06;;;;;;;21.48;11.18;;;4.80;99.90;;;;;;5008338;28;20038;-50
2023/03/15 08:37:32;;;;;;;19.17;11.40;;;4.60;99.90;;;;;;5001402;28;20133;-48
2023/03/15 08:40:03;;;;;;;18.35;12.20;;;4.40;99.90;;;;;;5002996;28;20117;-50
2023/03/15 08:42:29;;;;;;;15.98;10.60;;;4.60;99.90;;;;;;5002795;28;20038;-52
2023/03/15 08:44:58;;;;;;;17.70;10.15;;;4.80;99.90;;;;;;5003839;28;20052;-51
2023/03/15 08:47:24;;;;;;;22.38;11.15;;;5.00;99.90;;;;;;5005113;28;20129;-52
2023/03/15 08:49:52;;;;;;;20.30;11.68;;;5.20;99.90;;;;;;5010187;28;20088;-51
2023/03/15 08:52:20;;;;;;;20.98;12.75;;;5.20;99.90;;;;;;4993648;28;20110;-53
2023/03/15 08:54:47;;;;;;;17.25;10.57;;;5.50;99.90;;;;;;5001273;28;20033;-51
2023/03/15 08:57:13;;;;;;;22.73;10.95;;;5.20;99.90;;;;;;5005673;28;20501;-49
2023/03/15 08:59:39;;;;;;;18.63;10.52;;;5.10;99.90;;;;;;5004795;28;20118;-50
2023/03/15 09:02:05;;;;;;;19.88;9.50;;;5.20;99.90;;;;;;4999807;28;20137;-49
2023/03/15 09:04:31;;;;;;;20.40;11.27;;;5.10;99.90;;;;;;5005363;28;20045;-51
2023/03/15 09:06:57;;;;;;;20.95;11.05;;;5.30;99.90;;;;;;4999460;28;20497;-51
2023/03/15 09:09:23;;;;;;;19.92;11.30;;;5.40;99.90;;;;;;5004079;28;20040;-49
2023/03/15 09:11:49;;;;;;;16.55;10.80;;;5.70;99.90;;;;;;5004041;28;20037;-52
2023/03/15 09:14:14;;;;;;;18.65;10.32;;;5.50;99.90;;;;;;5005711;28;20322;-49
2023/03/15 09:16:40;;;;;;;19.05;10.13;;;5.30;99.90;;;;;;5005213;28;20046;-51
2023/03/15 09:19:06;;;;;;;16.30;10.15;;;5.50;99.90;;;;;;5005840;28;20026;-52
2023/03/15 09:21:31;;;;;;;17.02;9.75;;;5.10;99.90;;;;;;5005599;28;20357;-49
2023/03/15 09:23:57;;;;;;;17.75;10.75;;;5.40;99.90;;;;;;5005211;28;20109;-51
2023/03/15 09:26:22;;;;;;;23.88;10.38;;;5.80;99.90;;;;;;5004179;28;20389;-52
2023/03/15 09:28:48;;;;;;;20.98;9.43;;;5.90;99.90;;;;;;5004090;28;20041;-53
2023/03/15 09:31:14;;;;;;;15.88;9.13;;;5.80;99.90;;;;;;5005420;28;20038;-51
2023/03/15 09:33:40;;;;;;;17.17;9.18;;;5.60;99.90;;;;;;5004722;28;20096;-50
2023/03/15 09:36:06;;;;;;;17.77;8.93;;;5.50;99.90;;;;;;5004044;28;20053;-51
2023/03/15 09:38:31;;;;;;;15.07;9.20;;;5.40;99.90;;;;;;5005348;28;20113;-49
2023/03/15 09:41:00;;;;;;;16.58;8.43;;;5.60;99.90;;;;;;5003540;28;20037;-50
2023/03/15 09:43:34;;;;;;;13.32;9.27;;;5.70;99.90;;;;;;5004853;28;20448;-50
2023/03/15 09:46:06;;;;;;;20.17;9.48;;;5.80;99.90;;;;;;5008054;28;20503;-51
2023/03/15 09:48:37;;;;;;;15.70;8.85;;;5.80;99.90;;;;;;5009650;28;20073;-49
2023/03/15 09:51:10;;;;;;;15.77;8.63;;;6.00;99.90;;;;;;4979095;28;20034;-49
2023/03/15 09:53:40;;;;;;;;;;;6.20;99.90;;;;;;5010353;28;20401;-49
2023/03/15 09:56:28;;;;;;;13.27;7.35;;;6.10;99.90;;;;;;4998763;28;20369;-49
2023/03/15 09:58:57;;;;;;;13.10;7.32;;;5.80;99.90;;;;;;4990783;28;20037;-52
2023/03/15 10:01:35;;;;;;;14.73;8.40;;;5.80;99.90;;;;;;5008435;28;20034;-50
2023/03/15 10:10:26;;;;;;;13.43;7.88;;;6.50;99.90;;;;;;5025242;23;20643;-62
2023/03/15 10:13:04;;;;;;;15.85;7.97;;;6.40;99.90;;;;;;5020715;28;20541;-62
2023/03/15 10:15:40;;;;;;;17.00;7.30;;;6.30;99.90;;;;;;5025863;28;20041;-62
2023/03/15 10:18:26;;;;;;;15.55;7.13;;;6.50;99.90;;;;;;5021369;28;20112;-61
2023/03/15 10:21:03;;;;;;;12.85;6.18;;;6.50;99.90;;;;;;5027052;28;20128;-61
2023/03/15 10:23:47;;;;;;;10.15;4.82;;;6.50;99.90;;;;;;5025027;28;20106;-61
2023/03/15 10:26:17;;;;;;;13.85;5.13;;;6.30;99.90;;;;;;5024712;28;20033;-61
2023/03/15 10:28:44;;;;;;;13.27;5.63;;;6.40;99.90;;;;;;5027286;28;20037;-61
2023/03/15 10:31:15;;;;;;;16.85;5.38;;;6.60;99.90;;;;;;5028436;28;20439;-61
2023/03/15 10:33:42;;;;;;;17.13;5.32;;;6.70;99.90;;;;;;5008910;28;20042;-62
2023/03/15 10:36:21;;;;;;;17.05;4.38;;;6.80;99.90;;;;;;5026266;28;20716;-61
2023/03/15 10:38:47;;;;;;;11.48;4.40;;;6.90;99.90;;;;;;5029136;28;20737;-62
2023/03/15 10:41:38;;;;;;;13.38;4.57;;;7.10;99.90;;;;;;5025021;28;20128;-62
2023/03/15 10:44:09;;;;;;;10.70;5.45;;;7.10;99.90;;;;;;5028531;28;20488;-61
2023/03/15 10:46:35;;;;;;;14.43;4.75;;;6.90;99.90;;;;;;5029068;28;20038;-61
2023/03/15 10:49:14;;;;;;;15.93;5.03;;;6.70;99.90;;;;;;5030610;28;20076;-61
2023/03/15 10:51:47;;;;;;;10.65;4.78;;;6.20;99.90;;;;;;5007664;28;20038;-61
2023/03/15 10:54:19;;;;;;;9.32;3.60;;;6.20;99.90;;;;;;5028583;28;20365;-61
2023/03/15 10:57:06;;;;;;;11.53;3.33;;;5.90;99.90;;;;;;5024568;28;20446;-61
2023/03/15 10:59:35;;;;;;;14.48;2.90;;;6.00;99.90;;;;;;5023113;28;20822;-62
2023/03/15 11:02:27;;;;;;;9.57;2.67;;;6.10;99.90;;;;;;5019083;28;20037;-61
2023/03/15 11:05:17;;;;;;;11.27;2.67;;;6.30;99.90;;;;;;4991820;28;20041;-62
2023/03/15 11:08:13;;;;;;;9.30;3.78;;;6.20;99.90;;;;;;5014257;28;20408;-61
2023/03/15 11:10:39;;;;;;;13.02;3.67;;;6.20;99.90;;;;;;5022664;28;20047;-61
2023/03/15 11:13:21;;;;;;;10.40;2.40;;;6.30;99.90;;;;;;5007187;28;20025;-61
2023/03/15 11:16:05;;;;;;;12.35;2.13;;;6.30;99.90;;;;;;5025995;28;20041;-61
2023/03/15 11:18:35;;;;;;;7.85;2.05;;;6.50;99.90;;;;;;5024112;28;20068;-62
2023/03/15 11:21:05;;;;;;;7.85;2.10;;;6.90;99.90;;;;;;5026256;28;20456;-62
2023/03/15 11:23:35;;;;;;;9.63;2.63;;;7.10;99.90;;;;;;5026434;28;20034;-62
2023/03/15 11:26:02;;;;;;;10.27;2.47;;;7.00;99.90;;;;;;5023797;28;20041;-62
2023/03/15 11:28:31;;;;;;;8.02;2.58;;;7.30;99.90;;;;;;5021310;28;20061;-62
2023/03/15 11:31:00;;;;;;;7.35;2.60;;;7.30;99.90;;;;;;5008435;28;20037;-62
2023/03/15 11:33:55;;;;;;;6.93;2.10;;;7.50;1.00;;;;;;5023792;28;20041;-62
2023/03/15 11:36:24;;;;;;;6.72;2.00;;;7.50;99.90;;;;;;5019265;28;20037;-62
2023/03/15 11:38:52;;;;;;;7.53;2.20;;;7.40;99.90;;;;;;5023439;28;20084;-62
2023/03/15 11:41:25;;;;;;;5.13;1.95;;;7.50;99.90;;;;;;5022272;28;20056;-62
2023/03/15 11:44:11;;;;;;;7.85;1.90;;;7.50;99.90;;;;;;5024902;28;20053;-62
2023/03/15 11:46:46;;;;;;;7.05;1.88;;;7.50;99.90;;;;;;5021216;28;20053;-62
2023/03/15 11:49:36;;;;;;;5.25;1.85;;;7.70;5.30;;;;;;5023712;28;20033;-61
2023/03/15 11:52:03;;;;;;;6.10;1.48;;;7.70;99.90;;;;;;5026285;28;20622;-60
2023/03/15 11:54:31;;;;;;;8.23;2.05;;;7.50;99.90;;;;;;5027098;28;20043;-62
2023/03/15 11:57:05;;;;;;;10.57;2.35;;;7.50;99.90;;;;;;5024781;28;20037;-61
2023/03/15 11:59:36;;;;;;;4.60;1.58;;;7.40;99.90;;;;;;5014754;28;20041;-61
2023/03/15 12:02:25;;;;;;;6.63;1.88;;;7.50;99.90;;;;;;5023204;28;20045;-63
2023/03/15 12:04:54;;;;;;;5.93;2.00;;;7.50;99.90;;;;;;5020027;28;20517;-64
2023/03/15 12:07:22;;;;;;;10.77;2.25;;;7.60;99.90;;;;;;5019562;28;20498;-64
2023/03/15 12:09:48;;;;;;;7.38;2.63;;;7.70;99.90;;;;;;5030157;28;20164;-64
2023/03/15 12:12:23;;;;;;;8.85;2.40;;;7.30;99.90;;;;;;5024509;28;20042;-64
2023/03/15 12:15:07;;;;;;;8.68;2.10;;;7.40;99.90;;;;;;5020285;28;20037;-64
2023/03/15 12:17:37;;;;;;;6.70;1.60;;;7.40;99.90;;;;;;5028055;28;20048;-64
2023/03/15 12:20:17;;;;;;;7.20;2.17;;;7.50;99.90;;;;;;5024956;28;20029;-64
2023/03/15 12:23:08;;;;;;;6.53;2.25;;;7.40;99.90;;;;;;5006483;28;20152;-64
2023/03/15 12:25:37;;;;;;;4.80;2.13;;;7.40;99.90;;;;;;5020153;28;20044;-64
2023/03/15 12:28:09;;;;;;;6.78;2.63;;;7.40;1.00;;;;;;5022200;28;20040;-64
2023/03/15 12:30:41;;;;;;;5.88;2.13;;;7.40;1.00;;;;;;5024367;28;20556;-64
2023/03/15 12:33:19;;;;;;;10.10;2.20;;;7.40;1.00;;;;;;4999355;28;20576;-64
2023/03/15 12:35:46;;;;;;;12.05;2.20;;;7.30;1.00;;;;;;5003489;28;20045;-65
2023/03/15 12:38:17;;;;;;;6.75;2.13;;;7.30;99.90;;;;;;5021637;28;20042;-64
2023/03/15 12:40:55;;;;;;;3.63;1.75;;;7.40;1.00;;;;;;5022598;28;20041;-64
2023/03/15 12:43:39;;;;;;;6.70;1.90;;;7.40;99.90;;;;;;5009583;28;20034;-64
2023/03/15 12:46:05;;;;;;;7.43;1.60;;;7.50;99.90;;;;;;4999898;28;20473;-64
2023/03/15 12:48:33;;;;;;;5.03;1.60;;;7.60;99.90;;;;;;5025194;28;20053;-64
2023/03/15 12:51:02;;;;;;;4.65;1.73;;;7.60;99.90;;;;;;5021617;28;20087;-64
2023/03/15 12:53:35;;;;;;;5.07;1.90;;;7.50;99.90;;;;;;5019884;28;20044;-64
2023/03/15 12:56:10;;;;;;;;;;;7.60;99.90;;;;;;5023393;28;20116;-60
2023/03/15 12:58:39;;;;;;;7.65;1.70;;;7.70;99.90;;;;;;5024063;28;19996;-64